Time;durP1;ratioP1;P1;durP2;ratioP2;P2;SDS_P1;SDS_P2;PMS_P1;PMS_P2;Temp;Humidity;BMP_temperature;BMP_pressure;BME280_temperature;BME280_humidity;BME280_pressure;Samples;Min_cycle;Max_cycle;Signal;HPM_P1;HPM_P2
2021/09/18 00:01:44;;;;;;;33.10;18.77;;;;;;;17.74;72.57;101764.47;5050241;28;20443;-49
2021/09/18 00:04:09;;;;;;;37.88;19.75;;;;;;;17.65;72.71;101767.13;5071561;28;20024;-49
2021/09/18 00:06:35;;;;;;;32.08;18.90;;;;;;;17.56;72.95;101761.84;5068583;28;20028;-51
2021/09/18 00:09:01;;;;;;;41.00;21.42;;;;;;;17.47;73.51;101761.84;5047543;28;20089;-52
2021/09/18 00:11:26;;;;;;;44.35;24.35;;;;;;;17.42;73.79;101761.84;5068646;28;20135;-48
2021/09/18 00:13:52;;;;;;;47.63;24.45;;;;;;;17.41;73.75;101757.44;5069375;28;20490;-49
2021/09/18 00:16:17;;;;;;;43.42;23.20;;;;;;;17.37;73.91;101751.31;5074821;28;20027;-48
2021/09/18 00:18:42;;;;;;;49.13;26.73;;;;;;;17.30;74.32;101759.22;5051486;28;20040;-48
2021/09/18 00:21:08;;;;;;;46.22;24.45;;;;;;;17.31;74.04;101753.94;5070668;28;20470;-49
2021/09/18 00:23:33;;;;;;;40.30;21.23;;;;;;;17.27;73.70;101754.81;5069942;28;20063;-52
2021/09/18 00:25:59;;;;;;;41.83;21.40;;;;;;;17.26;74.03;101758.31;5071221;28;20024;-52
2021/09/18 00:28:25;;;;;;;45.25;23.52;;;;;;;17.20;73.76;101753.03;5047722;28;20071;-47
2021/09/18 00:30:50;;;;;;;40.15;21.75;;;;;;;17.17;73.89;101760.09;5067890;28;20602;-52
2021/09/18 00:33:15;;;;;;;57.85;27.98;;;;;;;17.13;74.42;101753.06;5072673;28;20114;-49
2021/09/18 00:35:41;;;;;;;51.60;26.30;;;;;;;17.13;74.36;101753.06;5072414;28;20470;-49
2021/09/18 00:38:06;;;;;;;49.90;26.45;;;;;;;17.19;74.14;101756.59;5067398;28;20036;-50
2021/09/18 00:40:32;;;;;;;50.20;25.17;;;;;;;17.19;73.93;101759.22;5066724;28;20024;-50
2021/09/18 00:42:57;;;;;;;51.25;26.02;;;;;;;17.16;73.90;101755.69;5064408;28;20027;-48
2021/09/18 00:45:22;;;;;;;40.60;21.90;;;;;;;17.11;73.48;101760.09;5071791;28;20031;-57
2021/09/18 00:47:48;;;;;;;44.22;24.08;;;;;;;17.02;73.74;101767.09;5069699;28;20399;-50
2021/09/18 00:50:13;;;;;;;45.47;24.15;;;;;;;16.95;73.96;101753.94;5052063;28;20422;-48
2021/09/18 00:52:39;;;;;;;48.83;24.92;;;;;;;16.87;74.22;101755.66;5073105;28;20134;-52
2021/09/18 00:55:05;;;;;;;46.90;24.30;;;;;;;16.84;74.45;101753.00;5064941;28;20117;-46
2021/09/18 00:57:30;;;;;;;52.28;25.67;;;;;;;16.85;74.59;101750.38;5073371;28;20028;-47
2021/09/18 01:00:02;;;;;;;64.30;29.92;;;;;;;16.84;75.67;101756.53;5066312;28;20043;-47
2021/09/18 01:02:27;;;;;;;55.70;26.85;;;;;;;16.97;75.17;101755.66;5050756;28;20820;-47
2021/09/18 01:04:52;;;;;;;60.55;29.15;;;;;;;17.01;75.12;101748.66;5070647;28;20176;-50
2021/09/18 01:07:18;;;;;;;58.60;27.50;;;;;;;17.04;74.94;101753.94;5067632;28;20032;-49
2021/09/18 01:09:44;;;;;;;50.13;24.33;;;;;;;17.07;74.46;101758.34;5071322;28;20027;-49
2021/09/18 01:12:09;;;;;;;54.58;24.52;;;;;;;17.08;74.60;101749.56;5072850;28;20036;-48
2021/09/18 01:14:35;;;;;;;49.35;22.92;;;;;;;17.10;74.72;101747.78;5064622;28;20032;-50
2021/09/18 01:17:00;;;;;;;42.60;20.67;;;;;;;17.19;74.40;101751.31;5049098;28;20115;-48
2021/09/18 01:19:26;;;;;;;46.78;22.85;;;;;;;17.14;74.75;101747.78;5068536;28;20100;-48
2021/09/18 01:21:52;;;;;;;49.72;24.25;;;;;;;17.13;75.02;101759.22;5053348;28;20151;-49
2021/09/18 01:24:17;;;;;;;51.60;25.50;;;;;;;17.21;74.80;101749.53;5051602;28;20028;-47
2021/09/18 01:26:43;;;;;;;53.88;26.63;;;;;;;17.26;74.80;101750.41;5071275;28;20488;-48
2021/09/18 01:29:09;;;;;;;55.70;27.02;;;;;;;17.34;74.43;101745.16;5069123;28;21132;-48
2021/09/18 01:31:40;;;;;;;56.05;27.25;;;;;;;17.32;74.46;101747.78;5032922;28;20292;-51
2021/09/18 01:34:06;;;;;;;52.83;26.73;;;;;;;17.28;74.40;101734.59;5063904;28;20426;-53
2021/09/18 01:36:31;;;;;;;54.80;26.98;;;;;;;17.33;74.20;101741.63;5067346;28;20111;-52
2021/09/18 01:38:57;;;;;;;53.63;25.50;;;;;;;17.34;74.08;101731.97;5069286;28;20127;-49
2021/09/18 01:41:22;;;;;;;49.33;25.48;;;;;;;17.30;74.00;101732.84;5068572;28;20070;-47
2021/09/18 01:43:48;;;;;;;51.10;26.10;;;;;;;17.29;74.29;101731.97;5073188;28;20200;-48
2021/09/18 01:46:13;;;;;;;46.40;24.05;;;;;;;17.26;74.15;101728.47;5068491;28;20038;-49
2021/09/18 01:48:38;;;;;;;42.25;22.17;;;;;;;17.26;73.57;101729.31;5073308;28;20099;-51
2021/09/18 01:51:08;;;;;;;41.15;21.83;;;;;;;17.24;73.76;101736.38;5064437;28;20564;-50
2021/09/18 01:53:34;;;;;;;38.97;20.55;;;;;;;17.19;73.72;101738.13;5068123;28;20035;-49
2021/09/18 01:55:59;;;;;;;44.90;23.05;;;;;;;17.14;73.69;101737.22;5066954;28;20058;-49
2021/09/18 01:58:25;;;;;;;59.92;28.42;;;;;;;17.08;74.30;101737.22;5065614;28;20030;-48
2021/09/18 02:00:56;;;;;;;50.35;24.88;;;;;;;17.07;74.27;101751.31;5067825;28;20082;-47
2021/09/18 02:03:22;;;;;;;54.63;27.13;;;;;;;17.01;74.50;101746.03;5065580;28;20056;-46
2021/09/18 02:05:48;;;;;;;55.03;25.40;;;;;;;16.95;74.77;101739.00;5071924;28;20139;-47
2021/09/18 02:08:13;;;;;;;46.80;23.05;;;;;;;16.90;74.44;101739.84;5062503;28;20476;-48
2021/09/18 02:10:39;;;;;;;50.47;23.48;;;;;;;16.87;74.07;101738.13;5064262;28;20036;-51
2021/09/18 02:13:07;;;;;;;64.10;28.15;;;;;;;16.83;75.35;101736.31;5053435;28;20502;-50
2021/09/18 02:15:32;;;;;;;54.75;25.63;;;;;;;16.88;75.00;101739.00;5066482;28;20032;-50
2021/09/18 02:17:58;;;;;;;43.28;20.42;;;;;;;16.89;74.41;101735.50;5066992;28;20316;-48
2021/09/18 02:20:26;;;;;;;44.33;20.70;;;;;;;16.83;74.33;101733.69;5050430;28;20036;-50
2021/09/18 02:22:52;;;;;;;49.95;23.30;;;;;;;16.77;74.48;101730.22;5049090;28;20513;-51
2021/09/18 02:25:17;;;;;;;46.00;21.88;;;;;;;16.70;74.40;101736.34;5071980;28;20107;-50
2021/09/18 02:27:43;;;;;;;47.20;21.25;;;;;;;16.67;74.90;101733.69;5066377;28;20110;-50
2021/09/18 02:30:11;;;;;;;50.85;24.77;;;;;;;16.53;75.00;101730.97;5063835;28;20039;-52
2021/09/18 02:32:37;;;;;;;43.92;21.15;;;;;;;16.49;75.19;101730.09;5067114;28;20032;-51
2021/09/18 02:35:08;;;;;;;52.75;23.55;;;;;;;16.44;75.49;101728.31;5067975;28;20456;-49
2021/09/18 02:37:34;;;;;;;53.13;24.42;;;;;;;16.43;75.80;101731.81;5069175;28;20046;-47
2021/09/18 02:39:59;;;;;;;47.10;22.50;;;;;;;16.41;75.51;101728.31;5066633;28;20051;-51
2021/09/18 02:42:25;;;;;;;58.88;25.88;;;;;;;16.36;75.69;101727.41;5071193;28;20032;-47
2021/09/18 02:44:50;;;;;;;55.53;24.80;;;;;;;16.33;75.88;101730.94;5045375;28;20282;-46
2021/09/18 02:47:16;;;;;;;53.80;24.35;;;;;;;16.31;75.95;101718.63;5054313;28;20484;-48
2021/09/18 02:49:41;;;;;;;51.92;23.52;;;;;;;16.29;75.62;101715.09;5062499;28;20384;-51
2021/09/18 02:52:07;;;;;;;58.95;26.05;;;;;;;16.25;75.89;101716.84;5051263;28;20036;-47
2021/09/18 02:54:32;;;;;;;71.35;29.95;;;;;;;16.26;76.28;101712.47;5068013;28;20027;-47
2021/09/18 02:56:57;;;;;;;74.20;30.50;;;;;;;16.31;76.06;101716.00;5063389;28;20973;-47
2021/09/18 02:59:23;;;;;;;75.53;31.33;;;;;;;16.26;76.36;101715.13;5069985;28;20123;-48
2021/09/18 03:01:48;;;;;;;58.55;26.13;;;;;;;16.29;75.94;101715.09;5067126;28;20052;-49
2021/09/18 03:04:13;;;;;;;79.85;33.10;;;;;;;16.21;76.23;101713.34;5067390;28;20503;-49
2021/09/18 03:06:39;;;;;;;60.90;26.67;;;;;;;16.14;76.25;101706.31;5066882;28;20143;-49
2021/09/18 03:09:04;;;;;;;61.30;26.73;;;;;;;16.06;76.15;101707.13;5067782;28;20110;-48
2021/09/18 03:11:30;;;;;;;64.50;28.58;;;;;;;16.00;76.31;101713.25;5069724;28;20028;-47
2021/09/18 03:13:57;;;;;;;67.43;29.77;;;;;;;16.05;76.09;101716.78;5073878;28;20034;-52
2021/09/18 03:16:23;;;;;;;62.17;28.13;;;;;;;16.13;75.87;101712.44;5076423;28;20115;-47
2021/09/18 03:18:48;;;;;;;74.13;30.33;;;;;;;16.12;75.94;101722.94;5071927;28;20556;-47
2021/09/18 03:21:13;;;;;;;69.22;28.77;;;;;;;16.09;76.02;101728.22;5072810;28;20058;-52
2021/09/18 03:23:39;;;;;;;66.38;27.58;;;;;;;16.09;75.94;101715.94;5070892;28;20028;-48
2021/09/18 03:26:04;;;;;;;86.63;33.80;;;;;;;16.11;76.76;101710.66;5073189;28;20024;-49
2021/09/18 03:28:30;;;;;;;81.72;32.72;;;;;;;16.14;76.25;101708.94;5075602;28;20505;-49
2021/09/18 03:30:55;;;;;;;74.90;31.27;;;;;;;16.10;76.54;101706.28;5069628;28;20089;-49
2021/09/18 03:33:20;;;;;;;72.75;31.02;;;;;;;16.11;76.36;101710.66;5056399;28;20498;-51
2021/09/18 03:35:46;;;;;;;66.30;28.58;;;;;;;16.08;76.04;101706.28;5066714;28;20032;-47
2021/09/18 03:38:12;;;;;;;71.53;30.30;;;;;;;16.04;76.15;101712.38;5074244;28;20032;-48
2021/09/18 03:40:37;;;;;;;63.67;28.13;;;;;;;16.15;75.75;101713.34;5071439;28;20433;-52
2021/09/18 03:43:03;;;;;;;64.63;28.20;;;;;;;16.17;75.42;101710.69;5069366;28;20106;-52
2021/09/18 03:45:29;;;;;;;67.35;29.98;;;;;;;16.14;75.73;101716.81;5075811;28;20024;-50
2021/09/18 03:47:54;;;;;;;73.80;31.70;;;;;;;16.12;75.50;101718.56;5072899;28;20030;-47
2021/09/18 03:50:19;;;;;;;69.90;30.40;;;;;;;16.12;75.89;101723.81;5056997;28;20055;-50
2021/09/18 03:52:44;;;;;;;66.72;28.33;;;;;;;16.16;75.61;101725.59;5068874;28;20441;-53
2021/09/18 03:55:10;;;;;;;77.50;31.45;;;;;;;16.14;75.82;101716.81;5071452;28;20504;-47
2021/09/18 03:57:36;;;;;;;72.15;30.27;;;;;;;16.16;75.60;101722.94;5072047;28;20032;-49
2021/09/18 04:00:02;;;;;;;79.00;33.20;;;;;;;16.15;75.85;101715.09;5071297;28;20127;-47
2021/09/18 04:02:27;;;;;;;72.25;28.95;;;;;;;16.16;75.56;101725.59;5069684;28;20032;-48
2021/09/18 04:04:52;;;;;;;71.78;29.38;;;;;;;16.23;75.37;101726.50;5069348;28;20056;-50
2021/09/18 04:07:18;;;;;;;68.15;30.05;;;;;;;16.21;75.20;101723.88;5069526;28;20322;-49
2021/09/18 04:09:44;;;;;;;73.72;30.52;;;;;;;16.17;75.43;101729.97;5074295;28;20024;-49
2021/09/18 04:12:09;;;;;;;81.22;33.80;;;;;;;16.13;76.02;101736.13;5073851;28;20016;-48
2021/09/18 04:14:35;;;;;;;85.75;34.35;;;;;;;16.18;75.94;101728.22;5066642;28;20385;-52
2021/09/18 04:17:00;;;;;;;99.80;36.90;;;;;;;16.20;76.65;101732.63;5069972;28;20109;-51
2021/09/18 04:19:25;;;;;;;84.97;34.10;;;;;;;16.26;76.05;101736.16;5066330;28;20573;-48
2021/09/18 04:21:51;;;;;;;83.13;32.17;;;;;;;16.28;75.89;101734.44;5070926;28;20032;-51
2021/09/18 04:24:16;;;;;;;96.80;37.40;;;;;;;16.20;76.35;101742.28;5073704;28;20552;-49
2021/09/18 04:26:41;;;;;;;93.03;35.25;;;;;;;16.22;76.01;101730.88;5067854;28;21381;-50
2021/09/18 04:29:07;;;;;;;104.10;37.38;;;;;;;16.21;76.18;101737.03;5069239;28;21241;-51
2021/09/18 04:31:32;;;;;;;77.05;30.38;;;;;;;16.24;76.04;101728.25;5075287;28;20024;-50
2021/09/18 04:33:57;;;;;;;91.32;34.92;;;;;;;16.26;76.13;101728.28;5073349;28;20123;-48
2021/09/18 04:36:23;;;;;;;93.28;36.17;;;;;;;16.30;76.49;101730.03;5072470;28;20117;-48
2021/09/18 04:38:48;;;;;;;111.32;39.13;;;;;;;16.42;76.32;101735.31;5073339;28;20361;-50
2021/09/18 04:41:14;;;;;;;108.43;39.78;;;;;;;16.46;76.68;101738.00;5068972;28;20443;-47
2021/09/18 04:43:40;;;;;;;101.65;38.60;;;;;;;16.58;76.58;101745.94;5071603;28;20554;-49
2021/09/18 04:46:05;;;;;;;99.97;38.10;;;;;;;16.63;76.56;101741.59;5067797;28;20032;-49
2021/09/18 04:48:31;;;;;;;100.40;36.80;;;;;;;16.65;76.46;101736.28;5047705;28;20024;-49
2021/09/18 04:50:56;;;;;;;101.85;38.72;;;;;;;16.62;76.34;101742.44;5069264;28;20559;-47
2021/09/18 04:53:22;;;;;;;92.78;36.20;;;;;;;16.69;76.09;101738.09;5053873;28;20324;-47
2021/09/18 04:55:48;;;;;;;99.45;38.78;;;;;;;16.62;76.17;101741.56;5066436;28;20480;-47
2021/09/18 04:58:13;;;;;;;101.35;38.72;;;;;;;16.66;76.27;101747.72;5069870;28;20028;-48
2021/09/18 05:00:38;;;;;;;105.05;39.75;;;;;;;16.71;76.38;101746.84;5076132;28;20143;-49
2021/09/18 05:03:04;;;;;;;91.50;36.60;;;;;;;16.73;76.12;101755.63;5065456;28;20120;-48
2021/09/18 05:05:29;;;;;;;96.20;38.95;;;;;;;16.58;76.39;101753.81;5070125;28;20039;-51
2021/09/18 05:07:55;;;;;;;99.53;38.83;;;;;;;16.73;76.20;101754.75;5053008;28;20016;-50
2021/09/18 05:10:20;;;;;;;98.45;39.42;;;;;;;16.66;76.51;101755.59;5068968;28;20024;-48
2021/09/18 05:12:46;;;;;;;95.32;39.03;;;;;;;16.73;75.88;101763.53;5069284;28;20514;-53
2021/09/18 05:15:11;;;;;;;98.80;39.63;;;;;;;16.80;76.10;101753.91;5070108;28;20085;-47
2021/09/18 05:17:37;;;;;;;93.65;38.55;;;;;;;16.83;76.07;101754.75;5075831;28;20035;-49
2021/09/18 05:20:02;;;;;;;90.03;38.85;;;;;;;16.82;75.51;101760.94;5066145;28;20032;-49
2021/09/18 05:22:28;;;;;;;94.35;38.40;;;;;;;16.85;75.73;101760.03;5070667;28;20024;-51
2021/09/18 05:24:53;;;;;;;95.68;38.58;;;;;;;16.80;76.08;101769.69;5032907;28;20040;-48
2021/09/18 05:27:19;;;;;;;103.18;40.33;;;;;;;16.73;76.59;101770.56;5049617;28;20079;-50
2021/09/18 05:29:44;;;;;;;102.03;41.78;;;;;;;16.80;76.30;101774.97;5047828;28;20028;-51
2021/09/18 05:32:13;;;;;;;102.15;40.05;;;;;;;16.92;76.11;101770.59;5063358;28;20031;-51
2021/09/18 05:34:40;;;;;;;101.78;41.95;;;;;;;16.89;75.84;101770.63;5068082;28;20454;-54
2021/09/18 05:37:05;;;;;;;106.45;40.40;;;;;;;16.97;76.11;101773.22;5064000;28;20032;-49
2021/09/18 05:39:31;;;;;;;100.75;40.10;;;;;;;17.06;75.71;101775.00;5067477;28;20061;-48
2021/09/18 05:41:57;;;;;;;92.28;37.95;;;;;;;17.10;75.64;101776.75;5065331;28;20035;-49
2021/09/18 05:44:22;;;;;;;94.32;38.55;;;;;;;17.10;75.48;101771.50;5061976;28;20115;-52
2021/09/18 05:46:48;;;;;;;95.47;38.90;;;;;;;17.11;75.72;101786.44;5066355;28;20638;-52
2021/09/18 05:49:13;;;;;;;93.13;36.88;;;;;;;17.16;75.65;101779.41;5046753;28;20511;-52
2021/09/18 05:51:39;;;;;;;95.03;37.90;;;;;;;17.19;75.63;101785.56;5071600;28;20028;-48
2021/09/18 05:54:04;;;;;;;89.38;37.45;;;;;;;17.24;75.47;101790.84;5063647;28;20033;-47
2021/09/18 05:56:29;;;;;;;85.80;36.00;;;;;;;17.26;75.50;101778.56;5068746;28;20047;-49
2021/09/18 05:58:55;;;;;;;85.65;37.80;;;;;;;17.27;75.22;101782.91;5063507;28;20039;-50
2021/09/18 06:01:20;;;;;;;88.18;37.55;;;;;;;17.31;75.00;101788.22;5050264;28;20043;-48
2021/09/18 06:03:46;;;;;;;84.72;38.50;;;;;;;17.38;75.07;101789.09;5069208;28;20032;-50
2021/09/18 06:06:11;;;;;;;81.80;36.92;;;;;;;17.42;74.46;101794.34;5069776;28;20055;-49
2021/09/18 06:08:36;;;;;;;72.90;35.38;;;;;;;17.18;74.91;101794.34;5056248;28;20032;-49
2021/09/18 06:11:02;;;;;;;76.38;35.13;;;;;;;17.27;74.69;101794.34;5066334;28;20024;-48
2021/09/18 06:13:28;;;;;;;75.78;34.67;;;;;;;17.21;74.76;101793.47;5071749;28;20032;-50
2021/09/18 06:15:53;;;;;;;75.03;35.00;;;;;;;17.31;74.80;101790.84;5070823;28;20020;-48
2021/09/18 06:18:18;;;;;;;70.55;33.58;;;;;;;17.56;74.06;101793.47;5064644;28;20597;-49
2021/09/18 06:20:44;;;;;;;69.13;33.75;;;;;;;17.75;73.71;101789.94;5051047;28;20036;-49
2021/09/18 06:23:09;;;;;;;70.65;33.30;;;;;;;17.82;73.06;101792.59;5070124;28;20326;-51
2021/09/18 06:25:35;;;;;;;65.43;32.42;;;;;;;17.96;72.80;101794.31;5052962;28;20152;-48
2021/09/18 06:28:00;;;;;;;65.65;31.27;;;;;;;18.12;72.49;101796.91;5066047;28;20040;-49
2021/09/18 06:30:25;;;;;;;57.03;30.92;;;;;;;18.15;72.37;101801.31;5045797;28;20020;-50
2021/09/18 06:32:51;;;;;;;61.95;31.48;;;;;;;18.37;71.41;101805.63;5073233;28;20031;-53
2021/09/18 06:35:16;;;;;;;58.13;30.73;;;;;;;18.56;70.29;101801.16;5065807;28;20078;-47
2021/09/18 06:37:46;;;;;;;56.58;29.83;;;;;;;18.59;70.23;101798.53;5071245;28;20119;-48
2021/09/18 06:40:15;;;;;;;63.38;32.10;;;;;;;18.47;70.15;101802.06;5062445;28;20082;-47
2021/09/18 06:42:40;;;;;;;61.55;31.15;;;;;;;18.52;69.95;101807.34;5070397;28;20056;-46
2021/09/18 06:45:07;;;;;;;65.53;32.72;;;;;;;18.54;70.53;101806.41;5050827;28;20135;-49
2021/09/18 06:47:33;;;;;;;64.43;33.75;;;;;;;18.57;70.31;101809.09;5070936;28;20020;-51
2021/09/18 06:49:58;;;;;;;68.00;33.47;;;;;;;18.53;70.84;101809.09;5072772;28;20089;-50
2021/09/18 06:52:24;;;;;;;63.10;32.47;;;;;;;18.54;70.32;101811.69;5065640;28;20564;-47
2021/09/18 06:54:49;;;;;;;62.08;32.38;;;;;;;18.66;69.84;101807.31;5072395;28;20530;-49
2021/09/18 06:57:16;;;;;;;61.25;32.33;;;;;;;18.58;70.27;101808.22;5069237;28;20031;-50
2021/09/18 06:59:41;;;;;;;62.60;32.08;;;;;;;18.69;69.99;101809.91;5049925;28;20032;-50
2021/09/18 07:02:08;;;;;;;60.67;31.65;;;;;;;18.56;70.55;101806.44;5075056;28;20023;-48
2021/09/18 07:04:35;;;;;;;64.32;32.53;;;;;;;18.43;71.31;101816.16;5071803;28;20466;-49
2021/09/18 07:07:01;;;;;;;61.55;31.35;;;;;;;18.54;71.04;101811.69;5067882;28;20347;-47
2021/09/18 07:09:27;;;;;;;64.93;33.10;;;;;;;18.54;70.88;101811.69;5072795;28;20045;-51
2021/09/18 07:11:53;;;;;;;64.63;31.88;;;;;;;18.48;70.96;101814.38;5071996;28;20028;-46
2021/09/18 07:14:19;;;;;;;63.25;32.03;;;;;;;18.63;70.56;101810.81;5066596;28;20020;-49
2021/09/18 07:16:44;;;;;;;65.22;32.45;;;;;;;18.77;69.63;101814.28;5072391;28;20058;-49
2021/09/18 07:19:09;;;;;;;62.25;32.42;;;;;;;18.97;69.86;101820.31;5071446;28;20043;-49
2021/09/18 07:21:35;;;;;;;60.72;31.30;;;;;;;19.36;68.48;101823.56;5073186;28;20139;-47
2021/09/18 07:24:01;;;;;;;54.85;30.13;;;;;;;19.90;67.47;101816.94;5073433;28;20586;-53
2021/09/18 07:26:27;;;;;;;55.00;30.98;;;;;;;19.87;66.38;101821.41;5069702;28;20051;-48
2021/09/18 07:28:52;;;;;;;55.78;31.30;;;;;;;20.08;65.17;101822.06;5070936;28;20032;-49
2021/09/18 07:31:17;;;;;;;55.00;30.33;;;;;;;20.10;65.91;101814.09;5070665;28;20103;-53
2021/09/18 07:33:43;;;;;;;54.33;29.73;;;;;;;20.13;64.99;101814.06;5069562;28;20481;-47
2021/09/18 07:36:08;;;;;;;51.80;29.20;;;;;;;19.99;65.89;101816.00;5071291;28;20134;-49
2021/09/18 07:38:33;;;;;;;53.90;30.42;;;;;;;19.95;66.28;101823.06;5065915;28;20208;-50
2021/09/18 07:40:59;;;;;;;48.88;28.10;;;;;;;20.25;64.96;101822.75;5054602;28;20036;-49
2021/09/18 07:43:24;;;;;;;50.60;28.33;;;;;;;20.13;65.90;101824.66;5065893;28;20024;-47
2021/09/18 07:45:50;;;;;;;50.20;27.83;;;;;;;20.24;65.31;101828.06;5069842;28;20032;-50
2021/09/18 07:48:15;;;;;;;47.67;27.10;;;;;;;20.45;64.61;101825.19;5057929;28;20126;-51
2021/09/18 07:50:41;;;;;;;45.28;27.40;;;;;;;20.58;64.05;101826.81;5068257;28;20364;-52
2021/09/18 07:53:07;;;;;;;43.95;27.42;;;;;;;20.87;64.07;101828.16;5052025;28;20128;-50
2021/09/18 07:55:33;;;;;;;47.92;28.02;;;;;;;21.03;63.55;101825.31;5069018;28;20020;-48
2021/09/18 07:57:59;;;;;;;49.20;28.08;;;;;;;21.11;61.89;101826.94;5052683;28;20480;-47
2021/09/18 08:00:24;;;;;;;45.05;27.65;;;;;;;20.64;64.09;101829.38;5065066;28;20035;-52
2021/09/18 08:02:51;;;;;;;46.03;28.25;;;;;;;20.99;62.78;101828.00;5072521;28;20035;-49
2021/09/18 08:05:18;;;;;;;46.78;28.23;;;;;;;21.20;62.35;101813.59;5072268;28;20052;-50
2021/09/18 08:07:44;;;;;;;50.25;29.27;;;;;;;21.48;61.43;101830.81;5065473;28;20087;-48
2021/09/18 08:10:13;;;;;;;47.90;27.42;;;;;;;21.53;61.98;101826.28;5069696;28;20107;-50
2021/09/18 08:12:39;;;;;;;48.92;28.35;;;;;;;21.57;61.39;101828.00;5063947;28;20478;-47
2021/09/18 08:15:05;;;;;;;47.30;27.85;;;;;;;22.05;60.62;101836.91;5050637;28;20024;-50
2021/09/18 08:17:34;;;;;;;43.33;27.25;;;;;;;22.15;59.41;101835.81;5070612;28;20476;-50
2021/09/18 08:19:59;;;;;;;46.80;27.75;;;;;;;22.24;58.89;101835.66;5045149;28;20499;-52
2021/09/18 08:22:24;;;;;;;43.42;26.23;;;;;;;22.41;58.62;101839.75;5072570;28;20040;-51
2021/09/18 08:24:54;;;;;;;41.97;25.55;;;;;;;22.07;60.03;101837.78;5054028;28;20413;-49
2021/09/18 08:27:19;;;;;;;42.92;26.65;;;;;;;22.22;59.53;101833.94;5032925;28;20062;-49
2021/09/18 08:29:45;;;;;;;39.28;25.15;;;;;;;22.62;58.73;101831.34;5070353;28;20460;-48
2021/09/18 08:32:10;;;;;;;40.00;25.15;;;;;;;22.52;57.96;101829.78;5071938;28;20026;-48
2021/09/18 08:34:35;;;;;;;40.95;24.58;;;;;;;22.37;58.95;101830.97;5070253;28;20024;-50
2021/09/18 08:37:01;;;;;;;39.30;24.63;;;;;;;22.27;58.50;101826.75;5062768;28;20366;-53
2021/09/18 08:39:26;;;;;;;38.88;23.92;;;;;;;22.40;59.41;101830.03;5069767;28;20078;-51
2021/09/18 08:41:51;;;;;;;39.13;24.25;;;;;;;22.56;57.59;101827.03;5056439;28;20039;-49
2021/09/18 08:44:17;;;;;;;39.13;23.50;;;;;;;22.90;57.72;101831.66;5050474;28;20376;-47
2021/09/18 08:46:43;;;;;;;40.83;24.35;;;;;;;23.14;56.31;101830.22;5069323;28;20027;-47
2021/09/18 08:49:10;;;;;;;33.88;22.27;;;;;;;23.56;55.19;101830.97;5068734;28;20028;-51
2021/09/18 08:51:36;;;;;;;33.40;22.17;;;;;;;23.76;55.32;101834.91;5073928;28;20081;-50
2021/09/18 08:54:04;;;;;;;35.28;23.08;;;;;;;23.69;54.34;101830.63;5069177;28;20039;-48
2021/09/18 08:56:31;;;;;;;33.95;22.42;;;;;;;23.57;54.78;101832.75;5065091;28;20034;-50
2021/09/18 08:58:57;;;;;;;36.20;23.38;;;;;;;23.67;53.63;101834.25;5050666;28;20427;-54
2021/09/18 09:01:23;;;;;;;35.45;22.13;;;;;;;23.64;55.23;101840.53;5067780;28;20028;-46
2021/09/18 09:03:58;;;;;;;35.78;22.42;;;;;;;23.86;54.28;101840.84;5054262;28;20031;-51
2021/09/18 09:06:24;;;;;;;33.97;22.48;;;;;;;23.84;54.86;101829.38;5066928;28;20094;-48
2021/09/18 09:08:57;;;;;;;33.47;21.92;;;;;;;23.80;55.25;101838.34;5078469;28;20051;-48
2021/09/18 09:11:25;;;;;;;31.45;20.75;;;;;;;23.88;53.93;101830.16;5062533;28;20032;-51
2021/09/18 09:13:55;;;;;;;33.55;21.25;;;;;;;23.86;53.95;101831.06;5071939;28;20142;-48
2021/09/18 09:16:21;;;;;;;31.67;20.83;;;;;;;24.04;53.03;101836.81;5072677;28;20035;-51
2021/09/18 09:18:47;;;;;;;34.25;21.10;;;;;;;24.16;52.76;101839.16;5068350;28;20024;-52
2021/09/18 09:21:27;;;;;;;33.53;21.65;;;;;;;24.31;51.97;101838.75;5065209;28;20588;-50
2021/09/18 09:24:10;;;;;;;34.33;21.48;;;;;;;24.34;53.65;101832.47;5065602;28;20020;-50
2021/09/18 09:26:38;;;;;;;34.90;21.23;;;;;;;24.05;52.40;101831.44;5039789;28;20036;-50
2021/09/18 09:29:04;;;;;;;28.95;19.73;;;;;;;24.29;51.21;101834.38;5049833;28;20032;-49
2021/09/18 09:31:33;;;;;;;30.85;19.63;;;;;;;24.36;50.00;101841.28;5070812;28;20024;-49
2021/09/18 09:33:59;;;;;;;27.75;20.13;;;;;;;24.55;49.85;101834.50;5062551;28;20035;-49
2021/09/18 09:36:25;;;;;;;30.25;20.30;;;;;;;24.40;51.26;101835.81;5063340;28;20028;-50
2021/09/18 09:39:02;;;;;;;26.85;18.83;;;;;;;24.59;50.26;101833.50;5047335;28;20039;-49
2021/09/18 09:41:43;;;;;;;29.17;19.88;;;;;;;24.61;51.27;101842.34;5044344;28;20028;-51
2021/09/18 09:44:11;;;;;;;32.00;19.40;;;;;;;24.69;52.78;101840.31;5046131;28;20310;-50
2021/09/18 09:46:37;;;;;;;29.75;21.27;;;;;;;24.61;49.04;101837.88;5066214;28;20714;-48
2021/09/18 09:49:11;;;;;;;28.95;19.80;;;;;;;24.54;51.38;101841.63;5064936;28;20097;-51
2021/09/18 09:51:36;;;;;;;31.00;19.83;;;;;;;24.55;52.58;101846.06;5064088;28;20039;-49
2021/09/18 09:54:16;;;;;;;31.73;21.52;;;;;;;24.39;50.82;101842.09;5052912;28;20036;-49
2021/09/18 09:56:42;;;;;;;29.48;20.75;;;;;;;24.71;50.63;101841.13;5063241;28;20035;-47
2021/09/18 09:59:07;;;;;;;27.88;19.85;;;;;;;24.72;50.93;101839.34;5035524;28;20228;-49
2021/09/18 10:01:33;;;;;;;29.10;18.67;;;;;;;25.13;49.85;101835.47;5028151;28;20019;-48
2021/09/18 10:03:58;;;;;;;28.52;19.00;;;;;;;25.42;47.83;101838.06;5068807;28;20339;-48
2021/09/18 10:06:23;;;;;;;28.33;19.00;;;;;;;25.33;50.93;101846.34;5075327;28;20123;-48
2021/09/18 10:08:50;;;;;;;32.15;20.45;;;;;;;25.02;50.20;101841.97;5035692;28;20062;-49
2021/09/18 10:11:24;;;;;;;22.02;15.48;;;;;;;25.36;47.96;101835.59;5050495;28;20805;-49
2021/09/18 10:13:52;;;;;;;27.35;18.95;;;;;;;25.31;47.36;101835.72;5065598;28;20506;-47
2021/09/18 10:16:17;;;;;;;24.73;17.33;;;;;;;25.18;48.71;101841.50;5052519;28;20055;-49
2021/09/18 10:18:43;;;;;;;26.58;18.38;;;;;;;25.33;47.00;101839.22;5051597;28;20050;-46
2021/09/18 10:23:53;;;;;;;19.00;12.82;;;;;;;25.44;46.36;101839.72;5071743;28;20370;-50
2021/09/18 10:26:18;;;;;;;20.45;14.00;;;;;;;25.07;46.40;101824.97;5060506;28;21611;-53
2021/09/18 10:28:46;;;;;;;21.17;14.18;;;;;;;25.51;45.18;101831.50;5061782;28;20482;-49
2021/09/18 10:31:21;;;;;;;27.17;13.27;;;;;;;25.73;48.77;101829.91;5066922;28;20435;-52
2021/09/18 10:33:52;;;;;;;13.23;9.60;;;;;;;25.53;43.36;101822.53;5066658;28;20035;-48
2021/09/18 10:36:18;;;;;;;12.30;8.80;;;;;;;25.28;43.84;101825.16;5050953;28;20127;-50
2021/09/18 10:38:49;;;;;;;13.25;8.43;;;;;;;25.33;43.25;101823.19;5068328;28;20031;-50
2021/09/18 10:41:20;;;;;;;10.98;7.90;;;;;;;25.18;43.84;101821.03;5064529;28;20020;-48
2021/09/18 10:43:55;;;;;;;8.40;5.70;;;;;;;25.07;43.58;101820.47;5069206;28;20028;-47
2021/09/18 10:46:47;;;;;;;10.90;6.13;;;;;;;24.91;44.69;101827.22;5046112;28;20032;-53
2021/09/18 10:49:42;;;;;;;22.88;15.40;;;;;;;24.70;47.13;101822.53;5049871;28;20111;-48
2021/09/18 10:52:17;;;;;;;17.20;10.75;;;;;;;25.03;45.78;101829.50;5052684;28;20052;-50
2021/09/18 10:55:05;;;;;;;16.48;11.50;;;;;;;25.00;47.25;101825.16;5067030;28;20040;-49
2021/09/18 10:57:45;;;;;;;18.83;12.40;;;;;;;24.86;48.96;101822.00;5067432;28;20547;-49
2021/09/18 11:00:30;;;;;;;17.67;12.85;;;;;;;24.72;47.05;101818.88;5066068;28;20051;-51
2021/09/18 11:02:57;;;;;;;19.88;12.93;;;;;;;24.81;47.38;101817.75;5065046;28;20475;-49
2021/09/18 11:05:22;;;;;;;20.00;13.93;;;;;;;24.90;47.75;101815.69;5068431;28;20020;-47
2021/09/18 11:07:53;;;;;;;16.45;11.50;;;;;;;24.89;46.27;101813.94;5069009;28;20027;-48
2021/09/18 11:10:21;;;;;;;19.33;13.13;;;;;;;24.85;47.87;101816.72;5066555;28;20618;-51